Terminal Aerodrome Forecast
Issued by NWS

Home | Current Version | Previous Version | Text Only | Print | Product List | Glossary On
Versions: 1 2 3 4 5 6 7 8 9 10 11 12 13 14 15 16
000
FTPA31 PHFO 200520
TAFHOG
TAF
PHOG 200520Z 2006/2106 04018G22KT P6SM BKN040
     FM202000 05023G35KT P6SM FEW050
     FM210500 05018G29KT P6SM FEW050
      AMD LTD TO VIS AND WIND 2009/2016=

USA.gov is the U.S. government's official web portal to all federal, state and local government web resources and services.